Time;durP1;ratioP1;P1;durP2;ratioP2;P2;SDS_P1;SDS_P2;PMS_P1;PMS_P2;Temp;Humidity;BMP_temperature;BMP_pressure;BME280_temperature;BME280_humidity;BME280_pressure;Samples;Min_cycle;Max_cycle;Signal;HPM_P1;HPM_P2
2022/07/17 00:00:01;;;;;;;8.70;1.73;;;14.00;80.60;;;;;;5215709;28;20569;-49
2022/07/17 00:02:32;;;;;;;4.50;2.23;;;14.00;81.30;;;;;;5212726;28;20660;-49
2022/07/17 00:05:02;;;;;;;7.23;1.43;;;13.90;82.40;;;;;;5201783;28;20461;-49
2022/07/17 00:07:33;;;;;;;2.97;1.57;;;13.90;83.30;;;;;;5202176;28;20230;-49
2022/07/17 00:10:04;;;;;;;4.03;1.40;;;13.90;83.30;;;;;;5220633;28;20291;-49
2022/07/17 00:12:35;;;;;;;2.50;1.87;;;13.90;84.40;;;;;;5216478;28;20207;-48
2022/07/17 00:15:06;;;;;;;3.30;1.20;;;13.80;85.30;;;;;;5215834;28;20450;-48
2022/07/17 00:17:37;;;;;;;4.33;2.40;;;13.90;86.00;;;;;;5210559;28;20481;-50
2022/07/17 00:20:08;;;;;;;4.33;1.80;;;13.80;86.90;;;;;;5206851;28;20238;-49
2022/07/17 00:22:39;;;;;;;5.57;2.10;;;13.80;88.50;;;;;;5202876;28;20299;-49
2022/07/17 00:25:10;;;;;;;5.70;2.17;;;13.70;89.80;;;;;;5221907;28;20432;-50
2022/07/17 00:27:41;;;;;;;1.67;1.53;;;13.70;90.40;;;;;;5215866;28;20465;-49
2022/07/17 00:30:13;;;;;;;3.57;1.40;;;13.70;90.70;;;;;;5203048;28;20207;-49
2022/07/17 00:32:44;;;;;;;6.20;1.43;;;13.70;91.30;;;;;;5201583;28;20919;-48
2022/07/17 00:35:14;;;;;;;8.80;2.27;;;13.60;91.80;;;;;;5226348;28;20449;-49
2022/07/17 00:37:47;;;;;;;2.70;1.53;;;13.60;92.30;;;;;;5218078;28;20438;-49
2022/07/17 00:40:21;;;;;;;5.90;1.50;;;13.50;92.80;;;;;;5210583;28;20208;-48
2022/07/17 00:42:52;;;;;;;4.63;1.67;;;13.50;93.00;;;;;;5214765;28;20445;-48
2022/07/17 00:45:24;;;;;;;6.00;1.80;;;13.50;93.50;;;;;;5201445;28;20521;-50
2022/07/17 00:48:00;;;;;;;1.37;1.23;;;13.40;94.00;;;;;;5209985;28;20410;-49
2022/07/17 00:50:36;;;;;;;5.53;1.30;;;13.40;94.50;;;;;;5201745;28;20475;-49
2022/07/17 00:53:08;;;;;;;4.47;1.60;;;13.30;95.10;;;;;;5221512;28;20437;-49
2022/07/17 00:55:40;;;;;;;4.53;2.10;;;13.30;95.90;;;;;;5211526;28;20893;-48
2022/07/17 00:58:16;;;;;;;4.83;1.77;;;13.30;96.50;;;;;;5215973;28;20469;-48
2022/07/17 01:00:49;;;;;;;1.33;1.27;;;13.20;96.80;;;;;;5222832;28;20458;-49
2022/07/17 01:03:22;;;;;;;7.07;1.57;;;13.20;97.40;;;;;;5198727;28;20557;-49
2022/07/17 01:05:52;;;;;;;1.27;1.17;;;13.10;97.60;;;;;;5215505;28;20454;-48
2022/07/17 01:08:23;;;;;;;5.10;1.57;;;13.10;98.00;;;;;;5214009;28;20510;-49
2022/07/17 01:10:54;;;;;;;4.90;1.50;;;13.10;98.70;;;;;;5208872;28;20602;-49
2022/07/17 01:13:25;;;;;;;4.67;1.53;;;13.00;98.90;;;;;;5213482;28;20233;-49
2022/07/17 01:15:56;;;;;;;2.90;1.60;;;13.00;99.20;;;;;;5216737;28;20251;-49
2022/07/17 01:18:27;;;;;;;2.63;1.73;;;13.00;99.50;;;;;;5209780;28;20934;-48
2022/07/17 01:21:06;;;;;;;5.00;1.80;;;12.90;99.90;;;;;;5210193;28;20462;-49
2022/07/17 01:23:36;;;;;;;4.20;2.00;;;12.90;99.90;;;;;;5210258;28;20188;-51
2022/07/17 01:26:07;;;;;;;3.10;1.53;;;12.80;99.90;;;;;;5215900;28;20458;-49
2022/07/17 01:28:38;;;;;;;1.07;1.00;;;12.80;99.90;;;;;;5193389;28;20657;-49
2022/07/17 01:31:08;;;;;;;2.00;1.20;;;12.70;99.90;;;;;;5214436;28;20216;-49
2022/07/17 01:33:40;;;;;;;6.33;1.67;;;12.70;99.90;;;;;;5212500;28;20179;-49
2022/07/17 01:36:10;;;;;;;3.70;1.03;;;12.70;99.90;;;;;;5194913;28;20665;-48
2022/07/17 01:38:41;;;;;;;4.07;1.73;;;12.70;99.90;;;;;;5199993;28;20442;-49
2022/07/17 01:41:11;;;;;;;8.37;1.27;;;12.70;99.90;;;;;;5196436;28;20226;-49
2022/07/17 01:43:42;;;;;;;3.60;1.33;;;12.60;99.90;;;;;;5218642;28;20614;-49
2022/07/17 01:46:13;;;;;;;5.10;2.80;;;12.60;99.90;;;;;;5200882;28;20215;-49
2022/07/17 01:48:43;;;;;;;3.67;1.63;;;12.60;99.90;;;;;;5210326;28;20205;-49
2022/07/17 01:51:14;;;;;;;6.37;1.70;;;12.50;99.90;;;;;;5205040;28;20304;-49
2022/07/17 01:53:44;;;;;;;4.17;1.67;;;12.60;99.90;;;;;;5217333;28;20179;-48
2022/07/17 01:56:15;;;;;;;3.07;1.57;;;12.50;99.90;;;;;;5204750;28;20229;-48
2022/07/17 01:58:46;;;;;;;4.80;1.80;;;12.50;99.90;;;;;;5202832;28;20190;-49
2022/07/17 02:01:16;;;;;;;2.43;1.70;;;12.50;99.90;;;;;;5200259;28;20199;-49
2022/07/17 02:03:47;;;;;;;5.00;1.60;;;12.40;99.90;;;;;;5212863;28;20214;-49
2022/07/17 02:06:17;;;;;;;7.37;2.80;;;12.40;99.90;;;;;;5217232;28;20237;-49
2022/07/17 02:08:50;;;;;;;7.20;2.50;;;12.40;99.90;;;;;;5215154;28;20174;-49
2022/07/17 02:11:21;;;;;;;9.50;1.60;;;12.30;99.90;;;;;;5206670;28;20203;-49
2022/07/17 02:13:51;;;;;;;2.33;1.73;;;12.30;99.90;;;;;;5214376;28;20441;-49
2022/07/17 02:16:22;;;;;;;7.63;1.73;;;12.30;99.90;;;;;;5211629;28;20230;-48
2022/07/17 02:18:52;;;;;;;5.67;1.70;;;12.30;99.90;;;;;;5217910;28;20187;-49
2022/07/17 02:21:23;;;;;;;1.93;1.47;;;12.30;99.90;;;;;;5210378;28;20210;-49
2022/07/17 02:23:54;;;;;;;7.10;1.30;;;12.30;99.90;;;;;;5198252;28;20271;-49
2022/07/17 02:26:24;;;;;;;2.93;1.10;;;12.20;99.90;;;;;;5200313;28;21475;-49
2022/07/17 02:28:55;;;;;;;11.37;1.90;;;12.20;99.90;;;;;;5211072;28;20187;-48
2022/07/17 02:31:25;;;;;;;12.23;1.30;;;12.10;99.90;;;;;;5189817;28;20290;-48
2022/07/17 02:33:56;;;;;;;2.13;1.57;;;12.10;99.90;;;;;;5197338;28;20308;-49
2022/07/17 02:36:27;;;;;;;5.20;1.30;;;12.10;99.90;;;;;;5216293;28;20263;-49
2022/07/17 02:38:57;;;;;;;1.67;1.00;;;12.10;99.90;;;;;;5206707;28;20210;-48
2022/07/17 02:41:28;;;;;;;1.30;1.20;;;12.10;99.90;;;;;;5207086;28;20516;-49
2022/07/17 02:43:59;;;;;;;5.80;1.33;;;12.00;99.90;;;;;;5193290;28;20190;-49
2022/07/17 02:46:30;;;;;;;5.80;1.40;;;12.00;99.90;;;;;;5180278;28;20674;-49
2022/07/17 02:49:00;;;;;;;9.83;1.67;;;11.90;99.90;;;;;;5207790;28;20195;-49
2022/07/17 02:51:31;;;;;;;2.90;1.47;;;11.90;99.90;;;;;;5204517;28;20457;-49
2022/07/17 02:54:01;;;;;;;3.60;1.40;;;11.90;99.90;;;;;;5207012;28;20727;-48
2022/07/17 02:56:32;;;;;;;3.53;1.10;;;11.80;99.90;;;;;;5205568;28;20191;-48
2022/07/17 02:59:03;;;;;;;2.10;1.20;;;11.80;99.90;;;;;;5207122;28;20261;-49
2022/07/17 03:01:33;;;;;;;5.10;1.70;;;11.80;99.90;;;;;;5199463;28;20679;-49
2022/07/17 03:04:04;;;;;;;3.70;2.03;;;11.80;99.90;;;;;;5206447;28;20179;-48
2022/07/17 03:06:34;;;;;;;6.23;1.70;;;11.80;99.90;;;;;;5220060;28;20209;-49
2022/07/17 03:09:05;;;;;;;3.67;1.60;;;11.80;99.90;;;;;;5216373;28;20285;-49
2022/07/17 03:11:36;;;;;;;4.73;1.30;;;11.80;99.90;;;;;;5208896;28;20680;-49
2022/07/17 03:14:06;;;;;;;4.97;1.47;;;11.70;99.90;;;;;;5195927;28;21095;-49
2022/07/17 03:16:37;;;;;;;7.00;1.90;;;11.70;99.90;;;;;;5212573;28;20190;-49
2022/07/17 03:19:07;;;;;;;1.83;1.33;;;11.70;99.90;;;;;;5202280;28;20187;-49
2022/07/17 03:21:38;;;;;;;4.80;1.90;;;11.70;99.90;;;;;;5218041;28;20230;-50
2022/07/17 03:24:08;;;;;;;6.53;1.80;;;11.70;99.90;;;;;;5221809;28;20179;-50
2022/07/17 03:26:39;;;;;;;3.00;1.03;;;11.70;99.90;;;;;;5210318;28;21388;-50
2022/07/17 03:29:10;;;;;;;6.43;1.60;;;11.70;99.90;;;;;;5206409;28;20321;-49
2022/07/17 03:31:42;;;;;;;6.17;1.53;;;11.70;99.90;;;;;;5208642;28;20674;-49
2022/07/17 03:34:13;;;;;;;3.50;1.47;;;11.80;99.90;;;;;;5215251;28;20644;-49
2022/07/17 03:36:44;;;;;;;9.23;2.13;;;11.80;99.90;;;;;;5195776;28;20466;-49
2022/07/17 03:39:15;;;;;;;5.00;1.57;;;11.80;99.90;;;;;;5189677;28;20188;-49
2022/07/17 03:41:45;;;;;;;4.57;1.87;;;11.80;99.90;;;;;;5228904;22;20242;-48
2022/07/17 03:44:16;;;;;;;2.17;1.27;;;11.80;99.90;;;;;;5225372;28;20179;-48
2022/07/17 03:46:47;;;;;;;4.67;1.57;;;11.80;99.90;;;;;;5210287;28;20275;-48
2022/07/17 03:49:17;;;;;;;3.23;1.50;;;11.80;99.90;;;;;;5218882;28;20647;-48
2022/07/17 03:51:48;;;;;;;8.17;1.70;;;11.80;99.90;;;;;;5210262;28;20549;-47
2022/07/17 03:54:19;;;;;;;1.93;1.47;;;11.80;99.90;;;;;;5205842;28;20195;-47
2022/07/17 03:56:49;;;;;;;1.87;1.37;;;11.90;99.90;;;;;;5202144;28;20374;-49
2022/07/17 03:59:20;;;;;;;2.77;2.00;;;11.90;99.90;;;;;;5211602;28;23311;-47
2022/07/17 04:01:51;;;;;;;10.53;1.73;;;12.00;99.90;;;;;;5218546;28;20239;-48
2022/07/17 04:04:21;;;;;;;2.90;1.30;;;12.00;99.90;;;;;;5219630;28;20194;-50
2022/07/17 04:06:52;;;;;;;2.93;1.83;;;12.00;99.90;;;;;;5210374;28;20333;-45
2022/07/17 04:09:23;;;;;;;1.80;1.70;;;12.00;99.90;;;;;;5217034;28;20183;-47
2022/07/17 04:11:53;;;;;;;1.93;1.40;;;12.10;99.90;;;;;;5214103;28;20263;-45
2022/07/17 04:14:24;;;;;;;3.80;1.63;;;12.10;99.90;;;;;;5212470;28;20180;-47
2022/07/17 04:16:54;;;;;;;3.90;1.70;;;12.20;99.90;;;;;;5220318;28;20280;-48
2022/07/17 04:19:25;;;;;;;3.60;1.47;;;12.20;99.90;;;;;;5184565;28;20186;-46
2022/07/17 04:21:55;;;;;;;10.33;1.83;;;12.30;99.90;;;;;;5190840;28;20310;-47
2022/07/17 04:24:26;;;;;;;2.00;1.80;;;12.30;99.90;;;;;;5213555;28;20194;-47
2022/07/17 04:26:56;;;;;;;3.20;1.53;;;12.50;99.90;;;;;;5209503;28;20208;-49
2022/07/17 04:29:27;;;;;;;5.37;1.60;;;12.60;99.90;;;;;;5215641;28;20188;-48
2022/07/17 04:31:57;;;;;;;4.80;1.47;;;12.70;99.90;;;;;;5221509;28;20199;-48
2022/07/17 04:34:29;;;;;;;10.00;1.53;;;12.80;99.90;;;;;;5218912;28;20251;-45
2022/07/17 04:37:01;;;;;;;4.67;1.60;;;12.90;99.90;;;;;;5226762;28;20180;-48
2022/07/17 04:39:31;;;;;;;2.57;1.60;;;13.00;99.90;;;;;;5215221;28;20531;-48
2022/07/17 04:42:03;;;;;;;1.33;1.13;;;13.10;99.90;;;;;;5212818;28;20567;-47
2022/07/17 04:44:34;;;;;;;5.80;1.60;;;13.10;99.90;;;;;;5213858;28;20442;-47
2022/07/17 04:47:04;;;;;;;3.90;1.77;;;13.30;99.90;;;;;;5215676;28;20199;-47
2022/07/17 04:49:35;;;;;;;10.57;1.20;;;13.40;99.90;;;;;;5214368;28;20188;-47
2022/07/17 04:52:06;;;;;;;6.17;1.53;;;13.50;99.90;;;;;;5220000;28;20187;-48
2022/07/17 04:54:36;;;;;;;3.70;1.40;;;13.70;99.90;;;;;;5211083;28;20267;-45
2022/07/17 04:57:07;;;;;;;2.93;1.20;;;14.10;99.90;;;;;;5218264;28;20273;-48
2022/07/17 04:59:37;;;;;;;2.73;1.20;;;15.00;99.90;;;;;;5214138;28;20274;-48
2022/07/17 05:02:08;;;;;;;4.73;1.40;;;16.10;99.90;;;;;;5208470;28;20199;-48
2022/07/17 05:04:38;;;;;;;14.97;1.53;;;16.80;97.30;;;;;;5203150;28;20282;-49
2022/07/17 05:07:09;;;;;;;3.33;1.07;;;17.70;94.10;;;;;;5215612;28;20210;-49
2022/07/17 05:09:40;;;;;;;2.67;1.33;;;18.20;90.90;;;;;;5222689;28;20702;-46
2022/07/17 05:12:10;;;;;;;6.73;1.50;;;18.40;84.30;;;;;;5211560;28;20194;-46
2022/07/17 05:14:41;;;;;;;1.10;1.10;;;18.70;82.60;;;;;;5225736;28;20182;-49
2022/07/17 05:17:11;;;;;;;4.13;1.90;;;19.30;78.20;;;;;;5217482;28;20199;-48
2022/07/17 05:19:42;;;;;;;4.03;1.50;;;19.60;72.90;;;;;;5215138;28;20196;-48
2022/07/17 05:22:13;;;;;;;7.37;2.17;;;19.70;68.00;;;;;;5214292;28;20233;-46
2022/07/17 05:24:43;;;;;;;4.17;1.17;;;19.70;66.10;;;;;;5205813;28;20179;-47
2022/07/17 05:27:14;;;;;;;2.40;1.30;;;20.00;63.30;;;;;;5217331;28;20211;-48
2022/07/17 05:29:45;;;;;;;3.13;1.30;;;21.20;60.10;;;;;;5206586;28;20555;-46
2022/07/17 05:32:15;;;;;;;2.07;1.40;;;21.80;56.60;;;;;;5216949;28;20291;-49
2022/07/17 05:34:46;;;;;;;2.20;1.23;;;22.50;54.10;;;;;;5206428;28;20184;-49
2022/07/17 05:37:16;;;;;;;1.90;1.70;;;22.30;51.30;;;;;;5215089;28;20639;-48
2022/07/17 05:39:47;;;;;;;2.50;1.50;;;22.50;51.50;;;;;;5219460;28;20195;-47
2022/07/17 05:42:17;;;;;;;6.90;1.60;;;24.30;49.50;;;;;;5223859;28;20199;-49
2022/07/17 05:44:48;;;;;;;6.53;1.40;;;26.10;44.80;;;;;;5213760;28;20270;-48
2022/07/17 05:47:19;;;;;;;3.53;1.33;;;27.10;41.60;;;;;;5213430;28;20290;-46
2022/07/17 05:49:49;;;;;;;1.70;1.30;;;27.80;39.30;;;;;;5204910;28;20241;-46
2022/07/17 05:52:20;;;;;;;2.03;1.50;;;26.20;39.30;;;;;;5207476;28;20179;-48
2022/07/17 05:54:51;;;;;;;10.17;1.47;;;26.70;39.40;;;;;;5196593;28;20190;-47
2022/07/17 05:57:21;;;;;;;2.90;0.97;;;26.90;38.30;;;;;;5188535;28;20183;-48
2022/07/17 05:59:52;;;;;;;1.30;1.20;;;26.60;39.10;;;;;;5216242;28;20183;-48
2022/07/17 06:02:22;;;;;;;2.40;1.03;;;25.40;38.50;;;;;;5196132;28;20171;-47
2022/07/17 06:04:53;;;;;;;5.50;1.43;;;24.00;40.80;;;;;;5212497;28;20225;-48
2022/07/17 06:07:23;;;;;;;4.10;1.00;;;24.00;42.10;;;;;;5210774;28;20207;-46
2022/07/17 06:09:54;;;;;;;1.30;1.10;;;25.00;40.90;;;;;;5216794;28;20243;-46
2022/07/17 06:12:25;;;;;;;5.60;1.10;;;24.70;40.60;;;;;;5201675;28;20234;-49
2022/07/17 06:14:55;;;;;;;1.53;1.40;;;24.10;41.20;;;;;;5211469;28;20654;-48
2022/07/17 06:17:26;;;;;;;4.27;1.40;;;23.50;41.70;;;;;;5197835;28;20187;-46
2022/07/17 06:19:56;;;;;;;6.50;1.47;;;23.00;43.30;;;;;;5214779;28;20263;-48
2022/07/17 06:22:27;;;;;;;1.33;1.23;;;23.70;42.80;;;;;;5222783;28;20232;-48
2022/07/17 06:24:57;;;;;;;1.33;0.93;;;24.60;42.00;;;;;;5198331;28;20639;-48
2022/07/17 06:27:28;;;;;;;2.70;1.30;;;25.40;40.50;;;;;;5208027;28;20222;-48
2022/07/17 06:29:59;;;;;;;3.33;1.17;;;26.30;38.70;;;;;;5200526;28;20194;-46
2022/07/17 06:32:29;;;;;;;8.23;1.50;;;26.50;38.10;;;;;;5197711;28;20179;-49
2022/07/17 06:35:00;;;;;;;1.00;1.00;;;27.10;36.70;;;;;;5213038;28;20183;-48
2022/07/17 06:37:31;;;;;;;3.63;1.80;;;27.20;36.60;;;;;;5196889;28;20183;-47
2022/07/17 06:40:03;;;;;;;1.43;0.97;;;26.60;36.10;;;;;;5198180;28;20218;-47
2022/07/17 06:42:33;;;;;;;3.20;1.23;;;25.90;38.20;;;;;;5199394;28;20217;-50
2022/07/17 06:45:05;;;;;;;1.27;0.90;;;25.80;37.90;;;;;;5199710;28;20446;-50
2022/07/17 06:47:37;;;;;;;2.63;0.97;;;24.70;39.60;;;;;;5204480;28;20904;-48
2022/07/17 06:50:09;;;;;;;5.40;1.20;;;24.40;40.10;;;;;;5207683;28;20453;-49
2022/07/17 06:52:39;;;;;;;3.23;1.83;;;23.90;41.00;;;;;;5214615;28;20429;-48
2022/07/17 06:55:10;;;;;;;2.83;1.60;;;23.60;41.60;;;;;;5197639;28;20457;-47
2022/07/17 06:57:41;;;;;;;1.60;1.30;;;22.70;42.70;;;;;;5207693;28;20194;-48
2022/07/17 07:00:12;;;;;;;1.43;1.03;;;21.90;43.80;;;;;;5182724;28;20793;-49
2022/07/17 07:02:42;;;;;;;6.60;2.20;;;21.50;44.70;;;;;;5213071;28;20742;-48
2022/07/17 07:05:13;;;;;;;7.60;1.40;;;20.90;45.90;;;;;;5211279;28;20190;-51
2022/07/17 07:07:43;;;;;;;1.17;0.90;;;20.40;46.70;;;;;;5199532;28;20825;-48
2022/07/17 07:10:14;;;;;;;2.50;1.27;;;19.60;48.40;;;;;;5215792;28;20264;-47
2022/07/17 07:12:45;;;;;;;8.43;1.30;;;19.00;49.30;;;;;;5211411;28;20542;-49
2022/07/17 07:15:16;;;;;;;3.30;1.17;;;19.00;50.00;;;;;;5213966;28;20436;-49
2022/07/17 07:17:47;;;;;;;10.37;1.50;;;19.20;49.90;;;;;;5207607;28;20194;-49
2022/07/17 07:20:18;;;;;;;4.30;1.30;;;19.00;50.20;;;;;;5202433;28;20209;-48
2022/07/17 07:22:48;;;;;;;2.00;1.80;;;19.00;50.30;;;;;;5200199;28;20442;-51
2022/07/17 07:25:19;;;;;;;2.90;1.80;;;19.20;50.20;;;;;;5205455;28;20202;-48
2022/07/17 07:27:50;;;;;;;3.90;1.27;;;19.30;50.10;;;;;;5217655;28;20264;-49
2022/07/17 07:30:20;;;;;;;2.97;0.93;;;19.30;49.90;;;;;;5200926;28;20290;-49
2022/07/17 07:32:51;;;;;;;1.70;1.17;;;19.40;50.60;;;;;;5214581;28;20635;-48
2022/07/17 07:35:22;;;;;;;3.67;1.80;;;19.20;50.70;;;;;;5219302;28;20186;-47
2022/07/17 07:37:53;;;;;;;8.43;1.30;;;18.90;50.90;;;;;;5203290;28;20194;-47
2022/07/17 07:40:23;;;;;;;19.77;1.90;;;18.70;51.40;;;;;;5216120;28;20543;-49
2022/07/17 07:42:54;;;;;;;3.13;1.43;;;18.60;51.90;;;;;;5195973;28;20241;-48
2022/07/17 07:45:25;;;;;;;5.20;1.37;;;18.70;52.40;;;;;;5208066;28;20253;-49
2022/07/17 07:47:56;;;;;;;1.40;1.27;;;19.20;51.80;;;;;;5206819;28;20612;-47
2022/07/17 07:50:28;;;;;;;2.33;1.60;;;19.00;51.30;;;;;;5222048;28;20208;-46
2022/07/17 07:52:58;;;;;;;5.73;1.20;;;18.80;52.20;;;;;;5214737;28;20218;-49
2022/07/17 07:55:29;;;;;;;3.63;1.50;;;18.30;52.70;;;;;;5219505;28;20865;-48
2022/07/17 07:58:10;;;;;;;2.70;1.37;;;18.20;53.70;;;;;;5221801;28;20179;-48
2022/07/17 08:00:43;;;;;;;4.13;1.53;;;18.10;54.00;;;;;;5224942;28;20260;-46
2022/07/17 08:03:14;;;;;;;2.70;1.00;;;18.10;54.40;;;;;;5219324;28;20441;-50
2022/07/17 08:05:45;;;;;;;2.20;1.30;;;18.00;54.70;;;;;;5203065;28;20483;-49
2022/07/17 08:08:16;;;;;;;4.57;1.40;;;17.90;55.10;;;;;;5217097;28;20598;-48
2022/07/17 08:10:46;;;;;;;8.23;1.33;;;18.20;55.10;;;;;;5216940;28;20253;-48
2022/07/17 08:13:17;;;;;;;1.53;0.83;;;18.20;54.60;;;;;;5220383;28;20202;-49
2022/07/17 08:15:48;;;;;;;4.43;1.20;;;18.00;55.10;;;;;;5214205;28;20284;-48
2022/07/17 08:18:18;;;;;;;6.67;1.50;;;18.10;55.40;;;;;;5203120;28;20194;-49
2022/07/17 08:20:49;;;;;;;4.73;1.43;;;18.00;55.60;;;;;;5221075;28;20282;-47
2022/07/17 08:23:19;;;;;;;3.13;1.53;;;17.80;56.00;;;;;;5206721;28;20190;-46
2022/07/17 08:25:50;;;;;;;1.67;1.53;;;18.00;56.20;;;;;;5206114;28;20206;-49
2022/07/17 08:28:21;;;;;;;14.23;1.83;;;18.30;56.00;;;;;;5204610;28;20180;-49
2022/07/17 08:30:52;;;;;;;2.47;1.37;;;18.10;55.50;;;;;;5203473;28;20212;-49
2022/07/17 08:33:22;;;;;;;8.60;1.70;;;17.90;56.10;;;;;;5204794;28;20241;-49
2022/07/17 08:35:53;;;;;;;8.17;1.63;;;17.90;56.20;;;;;;5207797;28;20441;-49
2022/07/17 08:38:24;;;;;;;2.73;1.80;;;18.30;56.40;;;;;;5216594;28;20674;-49
2022/07/17 08:40:54;;;;;;;1.50;1.40;;;19.10;55.80;;;;;;5202156;28;20215;-49
2022/07/17 08:43:25;;;;;;;2.97;1.83;;;19.20;54.30;;;;;;5200091;28;20180;-47
2022/07/17 08:45:57;;;;;;;6.57;2.17;;;19.60;53.90;;;;;;5214429;28;20677;-50
2022/07/17 08:48:31;;;;;;;8.33;1.57;;;20.40;52.10;;;;;;5223298;28;20191;-49
2022/07/17 08:51:03;;;;;;;2.77;1.20;;;20.90;51.20;;;;;;5216209;28;20461;-45
2022/07/17 08:53:34;;;;;;;7.00;1.37;;;21.10;49.50;;;;;;5202897;28;20449;-48
2022/07/17 08:56:05;;;;;;;4.63;1.53;;;21.50;49.10;;;;;;5225938;28;20813;-48
2022/07/17 08:58:36;;;;;;;3.90;1.00;;;21.00;49.10;;;;;;5224350;28;20315;-47
2022/07/17 09:01:07;;;;;;;1.23;0.90;;;20.50;50.60;;;;;;5217984;28;20233;-48
2022/07/17 09:03:41;;;;;;;2.47;1.47;;;20.20;51.30;;;;;;5226759;28;20473;-47
2022/07/17 09:06:18;;;;;;;2.23;1.20;;;20.00;51.90;;;;;;5221910;28;20203;-49
2022/07/17 09:09:07;;;;;;;5.60;1.40;;;19.60;52.20;;;;;;5217671;28;20425;-47
2022/07/17 09:11:46;;;;;;;1.73;1.20;;;19.50;52.70;;;;;;5205149;28;20528;-47
2022/07/17 09:14:18;;;;;;;1.90;1.23;;;20.00;52.80;;;;;;5208976;28;20433;-50
2022/07/17 09:16:53;;;;;;;3.57;1.37;;;20.60;51.70;;;;;;5186944;28;20526;-49
2022/07/17 09:19:33;;;;;;;6.00;1.57;;;20.90;50.00;;;;;;5218056;28;20439;-50
2022/07/17 09:22:12;;;;;;;1.53;1.43;;;21.40;50.20;;;;;;5203004;28;20467;-47
2022/07/17 09:24:49;;;;;;;4.37;3.43;;;21.60;49.50;;;;;;5225688;28;20445;-49
2022/07/17 09:27:23;;;;;;;13.43;4.70;;;21.40;48.50;;;;;;5211082;28;20474;-47
2022/07/17 09:30:05;;;;;;;3.40;2.07;;;21.10;49.60;;;;;;5214017;28;20440;-46
2022/07/17 09:32:41;;;;;;;2.50;1.20;;;21.40;49.50;;;;;;5214477;28;20477;-53
2022/07/17 09:35:11;;;;;;;1.53;1.47;;;21.50;48.90;;;;;;5211609;28;20945;-51
2022/07/17 09:37:42;;;;;;;3.80;1.47;;;21.70;48.70;;;;;;5218764;28;20465;-50
2022/07/17 09:43:03;;;;;;;1.40;1.00;;;21.80;48.50;;;;;;5215492;28;20587;-50
2022/07/17 09:45:35;;;;;;;1.30;1.20;;;21.70;48.20;;;;;;5203711;28;20427;-49
2022/07/17 09:48:08;;;;;;;7.10;3.00;;;21.30;48.40;;;;;;5206187;28;20290;-50
2022/07/17 09:50:40;;;;;;;3.57;2.00;;;20.90;48.80;;;;;;5218475;28;20469;-50
2022/07/17 09:53:11;;;;;;;5.10;1.23;;;20.80;49.50;;;;;;5183500;28;20430;-50
2022/07/17 09:55:43;;;;;;;0.83;0.83;;;20.50;49.90;;;;;;5196710;28;20468;-51
2022/07/17 09:58:18;;;;;;;4.90;1.50;;;20.40;50.20;;;;;;5194845;28;20429;-50
2022/07/17 10:00:48;;;;;;;1.77;1.63;;;20.60;50.10;;;;;;5206405;28;20785;-49
2022/07/17 10:03:20;;;;;;;5.13;1.87;;;20.30;50.40;;;;;;5219563;28;20453;-50
2022/07/17 10:05:51;;;;;;;15.27;8.00;;;20.20;50.50;;;;;;5199816;28;20294;-50
2022/07/17 10:08:23;;;;;;;3.70;2.40;;;19.80;50.20;;;;;;5184023;28;20430;-51
2022/07/17 10:10:53;;;;;;;2.30;1.60;;;19.60;51.40;;;;;;5200238;28;21071;-51
2022/07/17 10:13:24;;;;;;;4.20;1.30;;;19.80;51.80;;;;;;5200276;28;20537;-50
2022/07/17 10:15:55;;;;;;;2.67;1.67;;;19.80;51.40;;;;;;5205622;28;20310;-50
2022/07/17 10:18:39;;;;;;;7.13;3.00;;;20.20;51.50;;;;;;5224058;28;20186;-49
2022/07/17 10:21:14;;;;;;;4.17;2.83;;;20.50;50.60;;;;;;5220726;28;20199;-49
2022/07/17 10:24:06;;;;;;;8.00;1.70;;;20.40;50.00;;;;;;5206558;28;20515;-50
2022/07/17 10:26:37;;;;;;;3.70;1.90;;;20.50;50.10;;;;;;5192202;28;20964;-50
2022/07/17 10:29:44;;;;;;;5.07;1.60;;;20.30;50.30;;;;;;5217441;28;20434;-50
2022/07/17 10:32:18;;;;;;;1.57;1.30;;;20.30;50.50;;;;;;5104621;29;20871;-50
2022/07/17 10:34:57;;;;;;;3.30;1.20;;;20.30;50.60;;;;;;5200541;28;20436;-51
2022/07/17 10:37:37;;;;;;;4.00;1.53;;;20.30;50.50;;;;;;5201974;28;20431;-49
2022/07/17 10:40:23;;;;;;;6.10;2.30;;;20.30;50.40;;;;;;5219108;28;20788;-51
2022/07/17 10:43:01;;;;;;;3.40;2.50;;;20.20;51.00;;;;;;5215949;28;20429;-50
2022/07/17 10:45:42;;;;;;;11.30;2.40;;;20.50;51.00;;;;;;5201578;28;20449;-51
2022/07/17 10:48:19;;;;;;;2.20;2.00;;;20.60;49.90;;;;;;5203908;28;20503;-50
2022/07/17 10:50:55;;;;;;;3.20;1.60;;;20.50;49.60;;;;;;5218277;28;20454;-50
2022/07/17 10:53:30;;;;;;;3.07;1.70;;;20.30;49.80;;;;;;5213548;28;20441;-52
2022/07/17 10:56:05;;;;;;;2.03;1.93;;;20.10;49.70;;;;;;5219742;28;20426;-51
2022/07/17 10:58:43;;;;;;;5.93;2.03;;;20.30;50.20;;;;;;5222310;28;20914;-51
2022/07/17 11:01:17;;;;;;;5.50;1.50;;;20.50;50.10;;;;;;5205600;28;20443;-50
2022/07/17 11:03:59;;;;;;;2.10;1.77;;;20.30;50.20;;;;;;5212763;28;20449;-51
2022/07/17 11:06:37;;;;;;;5.17;1.47;;;20.10;50.20;;;;;;5214654;28;20513;-51
2022/07/17 11:09:10;;;;;;;1.17;0.90;;;19.90;50.20;;;;;;5194984;28;20445;-52
2022/07/17 11:11:47;;;;;;;1.63;1.53;;;19.90;50.30;;;;;;5206617;28;20988;-49
2022/07/17 11:14:26;;;;;;;4.83;1.57;;;19.90;50.90;;;;;;5207907;28;20493;-51
2022/07/17 11:16:59;;;;;;;9.23;1.60;;;19.90;50.60;;;;;;5187609;28;20448;-50
2022/07/17 11:19:33;;;;;;;5.07;1.80;;;19.70;50.90;;;;;;5217032;28;20434;-50
2022/07/17 11:22:09;;;;;;;3.93;2.50;;;19.70;51.70;;;;;;5201484;28;20465;-49
2022/07/17 11:24:45;;;;;;;4.97;2.00;;;19.90;51.30;;;;;;5195259;28;20479;-50
2022/07/17 11:27:26;;;;;;;9.10;2.00;;;20.00;50.90;;;;;;5203504;28;20602;-50
2022/07/17 11:29:59;;;;;;;1.90;1.50;;;19.90;50.80;;;;;;5210254;28;20455;-51
2022/07/17 11:32:35;;;;;;;4.37;1.30;;;19.90;50.90;;;;;;5211240;28;20846;-50
2022/07/17 11:35:20;;;;;;;1.87;1.77;;;19.70;50.80;;;;;;5204760;28;20471;-50
2022/07/17 11:37:50;;;;;;;6.57;1.87;;;19.80;51.30;;;;;;5201727;28;20520;-50
2022/07/17 11:40:22;;;;;;;9.63;1.27;;;20.00;51.10;;;;;;5210609;28;21048;-50
2022/07/17 11:43:00;;;;;;;6.60;3.10;;;20.20;51.00;;;;;;5211058;28;20203;-51
2022/07/17 11:45:31;;;;;;;6.73;2.10;;;20.30;51.00;;;;;;5213097;28;20438;-51
2022/07/17 11:48:02;;;;;;;9.77;3.97;;;20.50;50.40;;;;;;5201783;28;20550;-52
2022/07/17 11:50:33;;;;;;;4.37;2.20;;;20.70;50.00;;;;;;5201030;28;20381;-50
2022/07/17 11:53:05;;;;;;;10.03;2.23;;;20.70;49.60;;;;;;5220024;28;20505;-50
2022/07/17 11:55:41;;;;;;;5.37;2.03;;;20.70;49.60;;;;;;5221905;28;20214;-49
2022/07/17 11:58:12;;;;;;;7.57;3.37;;;20.60;48.80;;;;;;5219465;28;20437;-51
2022/07/17 12:00:42;;;;;;;2.60;1.90;;;20.50;49.40;;;;;;5214164;28;20854;-50
2022/07/17 12:03:13;;;;;;;4.63;0.80;;;20.50;49.30;;;;;;5222526;28;20501;-50
2022/07/17 12:05:44;;;;;;;1.60;1.37;;;20.40;49.50;;;;;;5226230;28;20202;-52
2022/07/17 12:08:19;;;;;;;5.23;1.43;;;20.40;50.60;;;;;;5227791;28;20244;-51
2022/07/17 12:11:04;;;;;;;3.70;1.33;;;20.30;49.80;;;;;;5209785;28;20306;-51
2022/07/17 12:13:40;;;;;;;3.63;1.47;;;20.30;49.80;;;;;;5204845;28;20887;-50
2022/07/17 12:16:24;;;;;;;4.43;2.20;;;20.30;49.80;;;;;;5224135;28;20436;-52
2022/07/17 12:19:04;;;;;;;4.23;1.00;;;20.30;50.10;;;;;;5218288;28;20444;-51
2022/07/17 12:21:54;;;;;;;5.30;1.53;;;20.40;50.10;;;;;;5225887;28;20543;-51
2022/07/17 12:24:37;;;;;;;5.50;2.97;;;20.40;48.80;;;;;;5221748;28;20540;-51
2022/07/17 12:27:11;;;;;;;11.90;5.17;;;20.30;49.10;;;;;;5219993;28;20462;-50
2022/07/17 12:29:43;;;;;;;6.40;2.13;;;20.50;49.80;;;;;;5221705;28;20978;-50
2022/07/17 12:32:16;;;;;;;4.03;1.63;;;20.50;48.90;;;;;;5225891;28;20497;-50
2022/07/17 12:34:48;;;;;;;2.50;1.97;;;20.50;49.10;;;;;;5224636;28;20571;-50
2022/07/17 12:37:21;;;;;;;5.40;3.17;;;20.60;49.30;;;;;;5210901;28;20473;-51
2022/07/17 12:39:51;;;;;;;3.03;2.63;;;20.60;48.80;;;;;;5211075;28;20449;-51
2022/07/17 12:42:22;;;;;;;1.87;1.77;;;20.60;48.50;;;;;;5218844;28;20563;-51
2022/07/17 12:44:52;;;;;;;4.10;1.37;;;20.70;48.90;;;;;;5208125;28;20191;-50
2022/07/17 12:47:23;;;;;;;11.70;4.60;;;20.60;48.60;;;;;;5227807;28;20224;-51
2022/07/17 12:49:54;;;;;;;4.10;2.40;;;20.60;49.10;;;;;;5224813;28;20229;-50
2022/07/17 12:52:24;;;;;;;1.80;1.70;;;20.80;48.60;;;;;;5225503;28;20654;-51
2022/07/17 12:54:55;;;;;;;1.80;1.70;;;21.00;47.00;;;;;;5207892;28;20550;-49
2022/07/17 12:57:26;;;;;;;10.80;1.70;;;21.10;47.00;;;;;;5223595;28;20191;-50
2022/07/17 12:59:56;;;;;;;2.33;1.30;;;21.30;47.30;;;;;;5204221;28;20561;-54
2022/07/17 13:02:27;;;;;;;4.13;1.47;;;21.30;46.50;;;;;;5204515;28;20269;-53
2022/07/17 13:04:57;;;;;;;5.33;1.57;;;21.40;46.40;;;;;;5202848;28;20197;-54
2022/07/17 13:07:28;;;;;;;8.43;1.67;;;21.30;46.70;;;;;;5211684;28;20556;-53
2022/07/17 13:09:59;;;;;;;5.80;2.43;;;21.40;46.70;;;;;;5194852;28;20243;-55
2022/07/17 13:12:29;;;;;;;3.40;2.10;;;21.20;46.70;;;;;;5212575;28;20185;-52